Geetbets, Belgium
Current Conditions -  °F | °C
As of 2:50 AM on Friday 19 Dec 2014 (Local Time) from EBLG Reporting Station
Broken Clouds Broken Clouds  
Wind Chill: 50°   Ceiling: 1300
Heat Index: 50°   Visibility: 4mi
Dew Point: 48°   Wind: 24mph
Humidity: 94%   Direction: 220°SW
Pressure: 29.97"   Gusts: NA
Location:  50.89°N, 5.11°E
Report Text: EBLG 190150Z 22021KT 7000 SCT008 BKN013 10/09 Q1015 TEMPO 24023G35KT
Loading
Personal Weather Stations






























Interactive Weather Map New forecast layout! Learn more

10-Day Weather Forecast

Advertisements
Track Severe Weather on mobile